Time;durP1;ratioP1;P1;durP2;ratioP2;P2;SDS_P1;SDS_P2;PMS_P1;PMS_P2;Temp;Humidity;BMP_temperature;BMP_pressure;BME280_temperature;BME280_humidity;BME280_pressure;Samples;Min_cycle;Max_cycle;Signal;HPM_P1;HPM_P2
2022/05/27 00:01:27;;;;;;;43.00;22.25;;;;;;;18.76;100.00;94909.22;4942417;29;20031;-86
2022/05/27 00:03:54;;;;;;;36.47;20.05;;;;;;;18.34;100.00;94906.81;4942007;29;20138;-85
2022/05/27 00:06:20;;;;;;;37.90;20.42;;;;;;;18.49;100.00;94895.81;4926578;29;20045;-85
2022/05/27 00:08:46;;;;;;;32.65;20.73;;;;;;;18.70;100.00;94894.50;4926068;29;20031;-86
2022/05/27 00:11:14;;;;;;;37.00;20.30;;;;;;;18.84;100.00;94897.06;4959383;29;20385;-86
2022/05/27 00:13:41;;;;;;;35.80;21.95;;;;;;;18.72;100.00;94906.38;4942527;29;20046;-85
2022/05/27 00:16:07;;;;;;;41.80;22.15;;;;;;;18.84;100.00;94900.50;4942266;29;20023;-86
2022/05/27 00:18:33;;;;;;;41.65;23.38;;;;;;;18.39;100.00;94904.06;4959038;29;20114;-85
2022/05/27 00:20:58;;;;;;;42.67;25.58;;;;;;;18.62;100.00;94896.81;4941775;29;20027;-86
2022/05/27 00:23:24;;;;;;;47.65;28.40;;;;;;;18.56;100.00;94908.66;4942228;29;20038;-86
2022/05/27 00:25:50;;;;;;;42.45;24.15;;;;;;;18.28;100.00;94914.09;4941860;29;20061;-86
2022/05/27 00:28:15;;;;;;;43.97;25.25;;;;;;;18.24;100.00;94913.16;4925884;29;20034;-86
2022/05/27 00:30:41;;;;;;;28.40;19.27;;;;;;;17.93;100.00;94913.84;4925920;29;20059;-86
2022/05/27 00:33:07;;;;;;;39.47;25.23;;;;;;;17.65;100.00;94911.28;4926033;29;20067;-85
2022/05/27 00:35:32;;;;;;;49.35;28.67;;;;;;;17.60;100.00;94906.13;4941685;29;20030;-86
2022/05/27 00:37:58;;;;;;;46.28;31.23;;;;;;;17.51;100.00;94906.03;4926230;29;20045;-85
2022/05/27 00:40:24;;;;;;;50.42;28.83;;;;;;;17.49;100.00;94908.97;4942175;29;20541;-86
2022/05/27 00:42:50;;;;;;;48.42;29.13;;;;;;;17.54;100.00;94905.44;4941910;29;20073;-85
2022/05/27 00:45:24;;;;;;;39.97;25.40;;;;;;;17.89;100.00;94903.06;4941597;29;20039;-85
2022/05/27 00:47:55;;;;;;;43.28;25.77;;;;;;;18.04;100.00;94903.81;4925923;29;20487;-85
2022/05/27 00:50:25;;;;;;;38.90;25.92;;;;;;;18.20;100.00;94899.72;4925758;29;20035;-85
2022/05/27 00:52:51;;;;;;;40.25;24.27;;;;;;;17.98;100.00;94905.78;4958617;29;20441;-85
2022/05/27 00:55:22;;;;;;;42.08;25.38;;;;;;;17.64;100.00;94907.06;4941879;29;20031;-85
2022/05/27 00:58:10;;;;;;;56.50;31.52;;;;;;;17.46;100.00;94906.13;4941392;29;20027;-85
2022/05/27 01:00:36;;;;;;;46.20;25.77;;;;;;;17.77;100.00;94911.56;4945089;28;20440;-85
2022/05/27 01:03:03;;;;;;;39.30;26.70;;;;;;;17.99;100.00;94898.63;4947672;29;20042;-85
2022/05/27 01:05:29;;;;;;;48.75;30.75;;;;;;;18.14;100.00;94900.94;4950217;28;20037;-85
2022/05/27 01:07:57;;;;;;;45.28;28.58;;;;;;;18.17;100.00;94889.72;4947436;29;20039;-85
2022/05/27 01:10:23;;;;;;;45.75;27.95;;;;;;;18.29;100.00;94891.84;4926118;28;20042;-85
2022/05/27 01:13:20;;;;;;;48.97;29.92;;;;;;;18.31;100.00;94889.66;4963113;28;20030;-84
2022/05/27 01:16:09;;;;;;;56.70;30.38;;;;;;;18.38;100.00;94891.88;4934639;28;20027;-85
2022/05/27 01:21:55;;;;;;;59.72;35.13;;;;;;;17.86;100.00;94877.16;4962236;29;20030;-85
2022/05/27 01:24:49;;;;;;;54.58;35.05;;;;;;;18.09;100.00;94877.97;4934032;28;20449;-84
2022/05/27 01:27:34;;;;;;;;;;;;;;;18.25;100.00;94871.53;4949358;29;20455;-85
2022/05/27 01:30:31;;;;;;;57.60;33.05;;;;;;;18.47;100.00;94863.50;4961585;29;20307;-85
2022/05/27 01:33:11;;;;;;;52.38;31.35;;;;;;;18.61;100.00;94866.06;4929161;29;20031;-85
2022/05/27 01:36:06;;;;;;;41.67;26.17;;;;;;;18.52;100.00;94865.25;4949401;28;20110;-85
2022/05/27 01:39:09;;;;;;;48.08;29.05;;;;;;;18.12;100.00;94865.19;4895835;28;20052;-85
2022/05/27 01:41:49;;;;;;;62.53;33.10;;;;;;;17.78;100.00;94872.56;4976488;28;20052;-85
2022/05/27 01:44:29;;;;;;;54.90;33.70;;;;;;;17.72;100.00;94860.53;4980945;28;20383;-85
2022/05/27 01:46:56;;;;;;;53.90;32.35;;;;;;;17.43;100.00;94872.28;4948119;28;20444;-85
2022/05/27 01:49:30;;;;;;;60.13;34.22;;;;;;;17.49;100.00;94871.09;4964107;28;20030;-85
2022/05/27 01:52:02;;;;;;;52.88;32.47;;;;;;;17.22;100.00;94870.88;4980967;28;20456;-85
2022/05/27 01:54:48;;;;;;;51.90;31.05;;;;;;;17.18;100.00;94866.44;4981165;28;20027;-85
2022/05/27 01:57:38;;;;;;;49.97;31.10;;;;;;;17.47;100.00;94858.16;4963637;28;20027;-85
2022/05/27 02:00:12;;;;;;;55.45;32.30;;;;;;;17.66;100.00;94859.88;4963609;28;20018;-85
2022/05/27 02:02:44;;;;;;;57.22;34.10;;;;;;;17.75;100.00;94857.28;4964054;28;20031;-85
2022/05/27 02:05:42;;;;;;;57.40;34.50;;;;;;;17.80;100.00;94857.94;4963585;28;20030;-85
2022/05/27 02:08:19;;;;;;;45.78;27.30;;;;;;;17.69;100.00;94843.34;4958883;28;20109;-85
2022/05/27 02:10:56;;;;;;;52.45;32.50;;;;;;;17.21;100.00;94845.47;4963416;28;20053;-85
2022/05/27 02:13:30;;;;;;;59.05;35.08;;;;;;;17.30;100.00;94842.13;4963616;28;20030;-85
2022/05/27 02:15:56;;;;;;;64.07;39.00;;;;;;;17.45;100.00;94838.34;4947440;28;20503;-85
2022/05/27 02:18:33;;;;;;;56.47;32.45;;;;;;;17.16;100.00;94836.84;4947410;28;20027;-85
2022/05/27 02:21:03;;;;;;;57.65;37.35;;;;;;;17.18;100.00;94830.19;4963555;28;20038;-85
2022/05/27 02:23:36;;;;;;;69.82;41.00;;;;;;;17.21;100.00;94836.72;4946857;28;20117;-85
2022/05/27 02:26:07;;;;;;;56.80;36.08;;;;;;;17.21;100.00;94842.03;4963029;28;20037;-85
2022/05/27 02:28:38;;;;;;;63.28;37.47;;;;;;;17.33;100.00;94850.25;4963027;28;20034;-85
2022/05/27 02:31:11;;;;;;;56.83;35.97;;;;;;;17.43;100.00;94851.09;4980331;28;20054;-85
2022/05/27 02:36:51;;;;;;;;;;;;;;;17.06;100.00;94848.44;4965918;28;20101;-85
2022/05/27 02:39:19;;;;;;;62.88;36.70;;;;;;;17.22;100.00;94841.72;4943901;28;19922;-84
2022/05/27 02:42:07;;;;;;;52.45;33.72;;;;;;;17.24;100.00;94828.22;4956545;29;20046;-85
2022/05/27 02:44:49;;;;;;;55.88;35.50;;;;;;;17.12;100.00;94834.00;4953462;28;20356;-84
2022/05/27 02:47:17;;;;;;;54.78;35.33;;;;;;;17.22;100.00;94825.09;4953011;28;20125;-84
2022/05/27 02:50:23;;;;;;;59.92;35.38;;;;;;;17.27;100.00;94817.00;4940078;29;20326;-84
2022/05/27 02:53:08;;;;;;;49.10;32.40;;;;;;;17.29;100.00;94822.78;4960475;29;20027;-84
2022/05/27 02:56:15;;;;;;;63.63;36.92;;;;;;;16.95;100.00;94829.31;4960519;29;20035;-84
2022/05/27 02:58:40;;;;;;;60.22;37.92;;;;;;;17.01;100.00;94841.38;4927907;29;20046;-85
2022/05/27 03:01:06;;;;;;;63.35;37.95;;;;;;;16.66;100.00;94848.94;4943023;29;20031;-85
2022/05/27 03:03:32;;;;;;;60.00;39.63;;;;;;;16.63;100.00;94841.56;4943182;29;20043;-84
2022/05/27 03:06:15;;;;;;;58.17;38.88;;;;;;;16.87;100.00;94837.94;4942990;29;20062;-84
2022/05/27 03:09:06;;;;;;;69.05;39.40;;;;;;;16.99;100.00;94832.94;4943320;29;20027;-85
2022/05/27 03:11:43;;;;;;;64.13;38.75;;;;;;;16.99;100.00;94819.72;4947684;28;20053;-85
2022/05/27 03:14:32;;;;;;;74.50;44.40;;;;;;;16.82;100.00;94826.38;4961983;28;20478;-85
2022/05/27 03:17:25;;;;;;;68.10;40.88;;;;;;;16.59;100.00;94824.72;4962524;28;20041;-85
2022/05/27 03:20:03;;;;;;;63.90;37.70;;;;;;;16.68;100.00;94828.25;4979348;28;20089;-85
2022/05/27 03:22:44;;;;;;;59.22;35.70;;;;;;;16.78;100.00;94830.69;4946576;28;20094;-85
2022/05/27 03:25:19;;;;;;;74.35;41.92;;;;;;;16.63;100.00;94826.47;4979379;28;20039;-85
2022/05/27 03:27:59;;;;;;;68.22;40.40;;;;;;;16.59;100.00;94830.81;4979544;28;20412;-85
2022/05/27 03:30:33;;;;;;;57.80;36.65;;;;;;;16.82;100.00;94836.97;4962388;28;20073;-85
2022/05/27 03:33:21;;;;;;;64.80;36.97;;;;;;;16.88;100.00;94832.34;4946060;28;20522;-85
2022/05/27 03:36:34;;;;;;;72.53;38.85;;;;;;;17.19;100.00;94823.81;4961625;28;20085;-85
2022/05/27 03:39:20;;;;;;;67.70;39.90;;;;;;;16.97;100.00;94821.84;4866419;29;20088;-85
2022/05/27 03:41:48;;;;;;;58.10;36.40;;;;;;;16.98;100.00;94826.06;4866550;29;20076;-84
2022/05/27 03:44:16;;;;;;;55.72;33.78;;;;;;;17.24;100.00;94820.25;4931392;28;20138;-85
2022/05/27 03:46:41;;;;;;;65.20;38.15;;;;;;;17.20;100.00;94814.78;4979252;28;20035;-85
2022/05/27 03:49:07;;;;;;;69.85;38.72;;;;;;;16.89;100.00;94820.69;4945495;28;20038;-85
2022/05/27 03:51:49;;;;;;;62.80;37.53;;;;;;;17.06;100.00;94819.31;4962055;28;20317;-85
2022/05/27 03:54:14;;;;;;;59.92;33.92;;;;;;;17.24;100.00;94810.44;4961454;28;20097;-85
2022/05/27 03:56:41;;;;;;;67.43;38.33;;;;;;;16.96;100.00;94809.69;4945746;28;20034;-85
2022/05/27 03:59:10;;;;;;;61.03;35.28;;;;;;;16.97;100.00;94808.63;4978958;28;20039;-85
2022/05/27 04:01:43;;;;;;;52.67;34.47;;;;;;;17.31;100.00;94817.22;4961178;28;20352;-84
2022/05/27 04:04:14;;;;;;;68.72;34.58;;;;;;;17.23;100.00;94808.13;4961435;28;20054;-85
2022/05/27 04:06:43;;;;;;;57.00;32.85;;;;;;;17.42;100.00;94815.88;4951578;29;20039;-84
2022/05/27 04:09:09;;;;;;;59.72;37.55;;;;;;;17.34;100.00;94819.25;4976841;28;20373;-84
2022/05/27 04:11:35;;;;;;;65.78;37.67;;;;;;;17.08;100.00;94828.53;4945180;28;20070;-84
2022/05/27 04:14:01;;;;;;;68.45;41.55;;;;;;;16.95;100.00;94824.78;4961302;28;20034;-84
2022/05/27 04:16:27;;;;;;;60.53;37.88;;;;;;;17.25;100.00;94816.53;4961378;28;20348;-84
2022/05/27 04:18:52;;;;;;;51.40;31.77;;;;;;;17.44;100.00;94818.25;4945484;28;20073;-84
2022/05/27 04:21:18;;;;;;;61.22;33.45;;;;;;;17.69;100.00;94816.09;4978208;28;20050;-86
2022/05/27 04:23:43;;;;;;;60.15;29.05;;;;;;;17.86;100.00;94818.06;4961015;28;20023;-85
2022/05/27 04:26:09;;;;;;;61.38;32.65;;;;;;;17.51;100.00;94814.09;4945176;28;20030;-85
2022/05/27 04:28:34;;;;;;;51.13;31.27;;;;;;;17.42;100.00;94818.53;4978631;28;20042;-86
2022/05/27 04:31:01;;;;;;;43.90;26.02;;;;;;;17.48;100.00;94814.69;4945143;28;20036;-86
2022/05/27 04:33:27;;;;;;;43.03;24.35;;;;;;;17.70;100.00;94812.34;4945344;28;20023;-86
2022/05/27 04:35:54;;;;;;;44.42;24.38;;;;;;;17.86;100.00;94820.72;4961132;28;20022;-87
2022/05/27 04:38:21;;;;;;;44.08;23.45;;;;;;;18.17;100.00;94812.81;4961350;28;20061;-86
2022/05/27 04:40:47;;;;;;;49.47;23.73;;;;;;;17.99;100.00;94811.91;4945046;28;20026;-86
2022/05/27 04:43:13;;;;;;;45.35;23.27;;;;;;;17.97;100.00;94815.97;4945190;28;20034;-86
2022/05/27 04:45:38;;;;;;;36.65;22.42;;;;;;;17.92;100.00;94817.63;4944651;28;20026;-88
2022/05/27 04:48:04;;;;;;;38.67;21.95;;;;;;;18.33;100.00;94825.69;4941438;29;20031;-88
2022/05/27 04:50:30;;;;;;;49.80;22.25;;;;;;;18.13;100.00;94822.47;4941967;29;20045;-87
2022/05/27 04:52:56;;;;;;;37.20;21.38;;;;;;;18.18;100.00;94824.22;4957624;29;20127;-87
2022/05/27 04:55:22;;;;;;;34.17;21.35;;;;;;;17.65;100.00;94829.94;4957584;28;20020;-90
2022/05/27 04:57:55;;;;;;;32.08;21.13;;;;;;;18.05;100.00;94818.69;4957693;29;20063;-87
2022/05/27 05:00:26;;;;;;;41.55;21.65;;;;;;;18.28;100.00;94818.63;4957648;29;20352;-88
2022/05/27 05:03:06;;;;;;;41.05;20.45;;;;;;;18.48;100.00;94822.63;4958429;28;20023;-89
2022/05/27 05:05:33;;;;;;;33.67;20.42;;;;;;;18.70;100.00;94818.34;4957170;29;20345;-88
2022/05/27 05:08:01;;;;;;;50.55;24.58;;;;;;;18.13;100.00;94813.72;4941729;29;20034;-88
2022/05/27 05:10:30;;;;;;;35.72;20.80;;;;;;;18.06;100.00;94822.09;4941754;29;20078;-88
2022/05/27 05:12:58;;;;;;;46.17;23.80;;;;;;;17.97;100.00;94821.25;4957769;29;20046;-88
2022/05/27 05:15:25;;;;;;;35.17;24.33;;;;;;;18.40;100.00;94809.31;4957502;28;20106;-89
2022/05/27 05:17:52;;;;;;;48.75;25.17;;;;;;;18.75;100.00;94804.91;4957137;28;20023;-88
2022/05/27 05:20:22;;;;;;;44.00;25.67;;;;;;;18.65;100.00;94800.69;4957419;29;20094;-88
2022/05/27 05:22:47;;;;;;;32.28;21.17;;;;;;;18.95;100.00;94800.13;4958992;28;20028;-88
2022/05/27 05:25:13;;;;;;;44.63;22.13;;;;;;;19.26;100.00;94809.88;4959924;28;20337;-88
2022/05/27 05:27:40;;;;;;;36.55;22.08;;;;;;;19.45;100.00;94809.59;4960423;28;20041;-88
2022/05/27 05:30:07;;;;;;;36.75;21.52;;;;;;;19.61;100.00;94817.06;4960891;28;20085;-89
2022/05/27 05:32:33;;;;;;;34.33;21.25;;;;;;;19.01;100.00;94809.53;4976454;28;20069;-89
2022/05/27 05:34:59;;;;;;;41.88;21.40;;;;;;;19.38;100.00;94819.88;4941402;29;20023;-88
2022/05/27 05:37:26;;;;;;;31.17;20.10;;;;;;;19.59;100.00;94816.63;4941503;29;20019;-88
2022/05/27 05:39:51;;;;;;;32.42;19.33;;;;;;;19.78;100.00;94822.38;4926046;29;20034;-87
2022/05/27 05:42:17;;;;;;;29.40;18.15;;;;;;;19.89;100.00;94822.81;4925680;29;20027;-89
2022/05/27 05:44:42;;;;;;;33.72;19.42;;;;;;;19.15;100.00;94822.69;4941257;29;20119;-90
2022/05/27 05:47:08;;;;;;;27.52;17.17;;;;;;;19.31;100.00;94824.88;4925382;29;20034;-88
2022/05/27 05:49:33;;;;;;;33.05;19.75;;;;;;;19.02;100.00;94819.06;4957257;29;20031;-87
2022/05/27 05:52:05;;;;;;;30.23;19.23;;;;;;;19.55;100.00;94824.41;4941284;29;20429;-89
2022/05/27 05:54:30;;;;;;;33.42;19.48;;;;;;;20.08;100.00;94824.38;4925646;29;20058;-88
2022/05/27 05:57:10;;;;;;;34.55;18.23;;;;;;;20.19;100.00;94824.84;4941127;28;20035;-88
2022/05/27 05:59:38;;;;;;;29.05;18.55;;;;;;;20.28;100.00;94820.25;4928993;29;20031;-88
2022/05/27 06:02:05;;;;;;;33.85;18.17;;;;;;;20.42;100.00;94827.25;4929314;29;20455;-88
2022/05/27 06:04:30;;;;;;;30.60;16.60;;;;;;;20.73;100.00;94826.97;4945146;29;20035;-88
2022/05/27 06:06:57;;;;;;;27.85;15.57;;;;;;;20.93;100.00;94827.34;4929300;29;20046;-88
2022/05/27 06:09:25;;;;;;;30.38;16.30;;;;;;;20.85;100.00;94823.63;4944727;29;20027;-89
2022/05/27 06:11:53;;;;;;;29.10;15.45;;;;;;;21.15;100.00;94830.84;4944533;29;20396;-89
2022/05/27 06:14:19;;;;;;;29.20;15.77;;;;;;;21.21;100.00;94826.13;4928761;29;20031;-90
2022/05/27 06:16:44;;;;;;;30.05;16.77;;;;;;;21.16;100.00;94830.53;4944188;29;20035;-88
2022/05/27 06:19:09;;;;;;;31.92;17.52;;;;;;;;;;4944445;29;20031;-88
2022/05/27 06:21:35;;;;;;;30.75;17.25;;;;;;;21.24;100.00;94834.25;4961510;29;20038;-88
2022/05/27 06:24:01;;;;;;;26.17;16.58;;;;;;;21.46;100.00;94835.81;4944444;29;20348;-89
2022/05/27 06:26:26;;;;;;;34.17;16.83;;;;;;;21.60;100.00;94832.88;4944543;29;20118;-88
2022/05/27 06:34:23;;;;;;;26.98;14.80;;;;;;;22.02;100.00;94834.75;4961273;29;20118;-91
2022/05/27 06:36:50;;;;;;;30.48;14.55;;;;;;;22.17;100.00;94835.22;4944237;29;20396;-91
2022/05/27 06:39:16;;;;;;;28.38;15.60;;;;;;;22.29;100.00;94837.13;4943851;29;20352;-91
2022/05/27 06:41:41;;;;;;;26.30;14.82;;;;;;;22.27;100.00;94829.44;4927956;29;20035;-92
2022/05/27 06:44:10;;;;;;;27.40;15.27;;;;;;;22.48;100.00;94833.16;4959512;29;20114;-91
2022/05/27 06:46:36;;;;;;;30.23;15.88;;;;;;;22.59;100.00;94831.63;4943929;29;20445;-91
2022/05/27 06:49:02;;;;;;;31.13;16.05;;;;;;;22.15;100.00;94835.53;4943568;29;20023;-91
2022/05/27 06:51:29;;;;;;;28.52;16.17;;;;;;;22.10;100.00;94835.75;4943826;29;20054;-91
2022/05/27 06:53:55;;;;;;;34.47;15.20;;;;;;;22.48;100.00;94831.28;4959712;29;20342;-92
2022/05/27 06:56:21;;;;;;;26.48;13.60;;;;;;;22.68;100.00;94835.00;4943251;29;20019;-92
2022/05/27 06:58:47;;;;;;;35.28;15.20;;;;;;;22.65;100.00;94845.53;4943505;29;20452;-91
2022/05/27 07:01:12;;;;;;;32.90;15.70;;;;;;;23.01;100.00;94844.75;4943568;29;20038;-92
2022/05/27 07:03:38;;;;;;;27.48;15.13;;;;;;;23.08;100.00;94838.06;4943703;29;20324;-91
2022/05/27 07:06:05;;;;;;;26.17;14.55;;;;;;;22.86;100.00;94845.44;4927860;29;20343;-91
2022/05/27 07:08:31;;;;;;;31.85;14.02;;;;;;;23.17;100.00;94841.41;4927466;28;20178;-92
2022/05/27 07:10:56;;;;;;;32.33;14.77;;;;;;;23.00;100.00;94843.22;4943198;29;20062;-91
2022/05/27 07:13:22;;;;;;;24.48;13.15;;;;;;;23.05;100.00;94846.75;4958512;28;20347;-89
2022/05/27 07:15:47;;;;;;;21.52;12.88;;;;;;;22.86;100.00;94845.44;4962501;28;20019;-91
2022/05/27 07:18:13;;;;;;;29.08;14.02;;;;;;;22.41;100.00;94855.84;4946354;28;20436;-92
2022/05/27 07:20:40;;;;;;;16.50;10.38;;;;;;;23.15;100.00;94851.66;4962094;28;20054;-91
2022/05/27 07:23:06;;;;;;;22.40;12.60;;;;;;;22.64;100.00;94858.09;4962401;28;20387;-90
2022/05/27 07:25:35;;;;;;;26.88;13.05;;;;;;;22.85;100.00;94857.25;4962083;28;20034;-91
2022/05/27 07:28:06;;;;;;;27.98;13.95;;;;;;;22.70;100.00;94856.78;4962626;28;20392;-91
2022/05/27 07:30:32;;;;;;;25.27;12.98;;;;;;;23.07;100.00;94858.69;4946578;28;20424;-91
2022/05/27 07:33:04;;;;;;;31.02;15.25;;;;;;;23.11;100.00;94858.78;4946122;28;20029;-91
2022/05/27 07:35:30;;;;;;;25.90;14.48;;;;;;;23.05;100.00;94854.78;4961848;28;20031;-91
2022/05/27 07:37:55;;;;;;;31.90;16.77;;;;;;;23.08;100.00;94851.44;4946116;28;20065;-91
2022/05/27 07:40:21;;;;;;;24.00;13.68;;;;;;;23.29;100.00;94859.34;4962092;28;20088;-91
2022/05/27 07:42:49;;;;;;;30.75;15.05;;;;;;;23.45;100.00;94862.09;4961678;28;20035;-91
2022/05/27 07:45:17;;;;;;;29.05;13.07;;;;;;;23.86;100.00;94862.88;4962183;28;20035;-92
2022/05/27 07:47:43;;;;;;;28.75;14.95;;;;;;;23.90;100.00;94856.84;4961674;28;20027;-91
2022/05/27 07:50:11;;;;;;;28.42;15.20;;;;;;;24.24;100.00;94866.19;4961911;28;20035;-91
2022/05/27 07:52:36;;;;;;;32.10;17.90;;;;;;;24.16;100.00;94858.31;4961952;28;20070;-91
2022/05/27 07:55:03;;;;;;;31.48;14.50;;;;;;;24.21;100.00;94852.69;4961500;28;20058;-92
2022/05/27 07:57:29;;;;;;;32.97;15.75;;;;;;;23.87;100.00;94844.91;4945868;28;20038;-92
2022/05/27 07:59:54;;;;;;;42.25;16.75;;;;;;;24.16;100.00;94847.59;4961676;28;20031;-89
2022/05/27 08:02:20;;;;;;;34.45;16.55;;;;;;;24.32;100.00;94848.41;4978537;28;20039;-91
2022/05/27 08:04:47;;;;;;;32.08;16.27;;;;;;;24.55;100.00;94845.16;4945977;28;20061;-93
2022/05/27 08:07:12;;;;;;;33.15;18.20;;;;;;;24.33;100.00;94843.84;4961349;28;20035;-92
2022/05/27 08:09:38;;;;;;;36.22;19.20;;;;;;;24.27;100.00;94838.72;4961344;28;20089;-91
2022/05/27 08:12:05;;;;;;;28.42;15.70;;;;;;;24.65;100.00;94844.63;4945676;28;20073;-90
2022/05/27 08:14:31;;;;;;;34.53;16.27;;;;;;;24.48;100.00;94844.97;4961260;28;20065;-91
2022/05/27 08:16:57;;;;;;;36.70;16.73;;;;;;;24.42;100.00;94844.44;4945506;28;20039;-92
2022/05/27 08:19:22;;;;;;;34.55;18.15;;;;;;;24.42;100.00;94844.44;4961044;28;20072;-91
2022/05/27 08:21:47;;;;;;;33.65;18.30;;;;;;;24.62;100.00;94850.66;4944853;28;20420;-91
2022/05/27 08:24:13;;;;;;;34.60;16.02;;;;;;;24.56;100.00;94838.66;4961005;28;20038;-91
2022/05/27 08:26:38;;;;;;;25.83;13.10;;;;;;;25.11;100.00;94843.41;4978292;28;20444;-92
2022/05/27 08:29:04;;;;;;;27.70;13.70;;;;;;;24.89;100.00;94842.13;4960963;28;20041;-91
2022/05/27 08:31:30;;;;;;;26.20;12.88;;;;;;;24.93;100.00;94843.75;4960875;28;20034;-91
2022/05/27 08:39:23;;;;;;;33.15;16.80;;;;;;;24.11;100.00;94841.41;4963690;28;20038;-90
2022/05/27 08:42:13;;;;;;;41.58;14.93;;;;;;;25.05;100.00;94834.06;4944723;28;20445;-91
2022/05/27 08:45:00;;;;;;;26.58;14.82;;;;;;;25.09;100.00;94829.56;4978167;28;20029;-90
2022/05/27 08:47:34;;;;;;;26.27;14.20;;;;;;;25.07;100.00;94831.81;4960915;28;20058;-90
2022/05/27 08:50:32;;;;;;;29.30;16.60;;;;;;;25.20;100.00;94830.56;4960898;28;20027;-90
2022/05/27 08:53:02;;;;;;;26.30;14.35;;;;;;;26.29;100.00;94826.56;4945143;28;20022;-87
2022/05/27 09:01:11;;;;;;;25.30;12.38;;;;;;;26.16;100.00;94828.63;4977851;28;20479;-87
2022/05/27 09:03:43;;;;;;;27.38;12.85;;;;;;;26.70;100.00;94816.09;4945385;28;20081;-87
2022/05/27 09:06:10;;;;;;;17.85;10.63;;;;;;;27.25;100.00;94809.63;4960837;28;20023;-87
2022/05/27 09:08:35;;;;;;;32.28;13.02;;;;;;;26.09;100.00;94815.84;4961102;28;20023;-87
2022/05/27 09:11:35;;;;;;;23.40;11.05;;;;;;;27.38;100.00;94820.91;4961277;28;20034;-87
2022/05/27 09:14:14;;;;;;;21.70;9.77;;;;;;;27.45;100.00;94818.34;4960577;28;20062;-87
2022/05/27 09:16:46;;;;;;;23.60;9.07;;;;;;;27.89;100.00;94810.78;4960447;28;20432;-87
2022/05/27 09:19:33;;;;;;;20.30;8.98;;;;;;;27.33;100.00;94815.88;4977623;28;20035;-88
2022/05/27 09:22:26;;;;;;;15.82;7.60;;;;;;;28.04;100.00;94809.78;4961176;28;20371;-87
2022/05/27 09:25:16;;;;;;;18.42;8.40;;;;;;;28.25;100.00;94805.00;4960413;28;20448;-87
2022/05/27 09:27:45;;;;;;;16.90;8.70;;;;;;;28.55;100.00;94804.88;4960483;28;20034;-88
2022/05/27 09:30:14;;;;;;;24.73;8.32;;;;;;;28.66;100.00;94796.88;4960478;28;20034;-87
2022/05/27 09:32:49;;;;;;;18.38;8.02;;;;;;;29.29;100.00;94793.44;4978488;28;20383;-87
2022/05/27 09:35:18;;;;;;;18.13;8.90;;;;;;;29.49;92.15;94791.25;4981560;28;20428;-87
2022/05/27 09:37:46;;;;;;;18.38;7.82;;;;;;;29.12;100.00;94790.25;4948478;28;20030;-87
2022/05/27 09:40:17;;;;;;;27.40;8.52;;;;;;;28.83;98.87;94792.00;4948663;28;20026;-87
2022/05/27 09:42:54;;;;;;;19.70;8.75;;;;;;;27.43;100.00;94785.63;4948439;28;20093;-88
2022/05/27 09:45:19;;;;;;;18.58;7.47;;;;;;;29.07;100.00;94779.81;4981301;28;20027;-88
2022/05/27 09:47:45;;;;;;;25.98;8.43;;;;;;;28.60;100.00;94774.88;4964515;28;20322;-88
2022/05/27 09:50:36;;;;;;;22.13;8.13;;;;;;;28.56;100.00;94771.41;4981577;28;20038;-87
2022/05/27 09:53:03;;;;;;;20.48;8.30;;;;;;;27.36;100.00;94777.47;4953575;28;20098;-88
2022/05/27 09:56:02;;;;;;;20.50;7.68;;;;;;;26.87;100.00;94769.16;4981533;28;20042;-87
2022/05/27 09:58:46;;;;;;;18.13;7.72;;;;;;;27.36;100.00;94770.19;4960021;28;20081;-87
2022/05/27 10:01:38;;;;;;;20.42;7.15;;;;;;;26.65;99.83;94768.06;4964012;28;20026;-88
2022/05/27 10:04:06;;;;;;;19.15;6.22;;;;;;;27.18;98.05;94761.88;4950361;28;20041;-86
2022/05/27 10:06:34;;;;;;;20.00;7.93;;;;;;;27.23;100.00;94753.50;4948990;29;20035;-87
2022/05/27 10:09:03;;;;;;;25.50;8.07;;;;;;;26.78;100.00;94755.19;4944747;29;20054;-87
2022/05/27 10:11:49;;;;;;;16.63;7.20;;;;;;;27.18;100.00;94751.13;4944754;29;20050;-88
2022/05/27 10:14:24;;;;;;;23.05;7.78;;;;;;;27.02;100.00;94761.28;4928695;29;20043;-87
2022/05/27 10:17:12;;;;;;;21.00;7.95;;;;;;;26.42;100.00;94763.47;4961519;29;20027;-88
2022/05/27 10:19:46;;;;;;;15.98;6.75;;;;;;;26.83;100.00;94749.50;4944671;29;20031;-87
2022/05/27 10:22:24;;;;;;;15.77;6.78;;;;;;;27.15;100.00;94751.06;4956904;28;20042;-87
2022/05/27 10:25:07;;;;;;;19.92;6.60;;;;;;;26.82;100.00;94746.03;4963062;28;20034;-87
2022/05/27 10:27:41;;;;;;;16.40;6.93;;;;;;;26.32;100.00;94747.97;4947685;28;20114;-88
2022/05/27 10:30:08;;;;;;;16.45;6.50;;;;;;;26.73;100.00;94734.00;4947940;28;20026;-88
2022/05/27 10:32:41;;;;;;;18.10;6.55;;;;;;;27.22;100.00;94740.44;4963115;28;20054;-88
2022/05/27 10:35:15;;;;;;;21.58;6.55;;;;;;;27.59;100.00;94741.63;4963515;28;20491;-89
2022/05/27 10:38:10;;;;;;;17.02;6.10;;;;;;;27.77;100.00;94739.13;4963537;28;20062;-87
2022/05/27 10:40:45;;;;;;;15.50;6.35;;;;;;;27.40;100.00;94739.84;4963534;28;20451;-87
2022/05/27 10:43:38;;;;;;;20.77;6.07;;;;;;;27.82;95.59;94741.50;4947199;28;20098;-88
2022/05/27 10:46:07;;;;;;;22.48;6.65;;;;;;;26.88;93.71;94730.41;4980145;28;20031;-87
2022/05/27 10:48:57;;;;;;;15.88;6.50;;;;;;;27.15;100.00;94730.34;4962916;28;20031;-87
2022/05/27 10:51:40;;;;;;;17.38;6.43;;;;;;;27.04;100.00;94724.06;4980160;28;20408;-88
2022/05/27 10:54:09;;;;;;;15.70;7.03;;;;;;;27.22;100.00;94724.28;4963180;28;20532;-88
2022/05/27 10:56:40;;;;;;;19.35;6.53;;;;;;;27.59;100.00;94720.88;4980127;28;20351;-88
2022/05/27 11:02:23;;;;;;;15.57;7.75;;;;;;;27.31;96.84;94716.69;4979972;28;20082;-88
2022/05/27 11:05:19;;;;;;;20.27;6.85;;;;;;;27.97;100.00;94712.75;4962898;28;20031;-88
2022/05/27 11:08:04;;;;;;;23.45;7.10;;;;;;;27.87;100.00;94708.06;4962975;28;20510;-87
2022/05/27 11:10:33;;;;;;;16.80;7.13;;;;;;;28.04;98.58;94707.47;4962898;28;20029;-87
2022/05/27 11:16:23;;;;;;;22.95;7.25;;;;;;;28.02;100.00;94698.19;4965205;28;20033;-88
2022/05/27 11:19:01;;;;;;;22.23;6.70;;;;;;;28.38;100.00;94698.50;4962729;28;20034;-88
2022/05/27 11:21:29;;;;;;;19.95;7.50;;;;;;;27.92;91.05;94688.88;4979520;28;20033;-88
2022/05/27 11:24:09;;;;;;;19.25;6.88;;;;;;;27.77;92.21;94688.75;4979582;28;20033;-88
2022/05/27 11:27:16;;;;;;;17.50;7.30;;;;;;;27.61;100.00;94686.28;4962552;28;20069;-87
2022/05/27 11:30:07;;;;;;;27.40;6.82;;;;;;;28.43;100.00;94681.22;4947016;28;20121;-88
2022/05/27 11:32:41;;;;;;;22.30;6.97;;;;;;;29.21;91.09;94674.69;4962334;28;20030;-87
2022/05/27 11:35:07;;;;;;;12.55;6.40;;;;;;;29.52;84.68;94679.03;4962355;28;20054;-89
2022/05/27 11:37:44;;;;;;;18.65;6.57;;;;;;;29.78;86.55;94677.94;4962158;28;20058;-88
2022/05/27 11:40:16;;;;;;;17.02;6.43;;;;;;;30.21;87.90;94673.72;4962134;28;20195;-88
2022/05/27 11:43:12;;;;;;;24.20;7.10;;;;;;;29.43;75.40;94666.69;4978910;28;20121;-88
2022/05/27 11:45:43;;;;;;;17.35;6.38;;;;;;;29.97;78.26;94665.97;4961740;28;20122;-88
2022/05/27 11:48:23;;;;;;;21.15;6.47;;;;;;;30.59;69.10;94660.53;4945996;28;20324;-88
2022/05/27 11:51:10;;;;;;;20.45;6.70;;;;;;;29.53;70.17;94653.56;4945376;28;20340;-88
2022/05/27 11:53:44;;;;;;;30.95;6.72;;;;;;;28.81;88.01;94651.41;4961806;28;20027;-88
2022/05/27 11:56:16;;;;;;;26.17;6.97;;;;;;;28.31;87.79;94649.94;4978019;28;20122;-88
2022/05/27 11:58:53;;;;;;;24.33;6.67;;;;;;;27.27;100.00;94643.25;4958263;28;20062;-88
2022/05/27 12:01:34;;;;;;;26.42;8.35;;;;;;;26.06;100.00;94637.47;4961732;28;20026;-88
2022/05/27 12:04:10;;;;;;;18.17;7.45;;;;;;;25.97;100.00;94624.28;4945754;28;20581;-89
2022/05/27 12:06:43;;;;;;;18.00;7.80;;;;;;;25.94;100.00;94625.03;4976779;28;20043;-88